createdAt,value
2023-01-09T00:04:00.776Z,3.33
2023-01-09T00:08:52.434Z,3.45
2023-01-09T00:13:44.380Z,9.05
2023-01-09T00:18:37.461Z,6.60
2023-01-09T00:23:29.190Z,5.95
2023-01-09T00:28:20.889Z,7.18
2023-01-09T00:33:13.175Z,7.85
2023-01-09T00:38:04.960Z,4.65
2023-01-09T00:42:57.908Z,5.97
2023-01-09T00:47:52.892Z,4.38
2023-01-09T00:52:47.103Z,5.55
2023-01-09T00:57:39.127Z,6.88
2023-01-09T01:02:31.029Z,3.20
2023-01-09T01:07:43.341Z,2.85
2023-01-09T01:12:35.053Z,4.35
2023-01-09T01:17:26.697Z,5.50
2023-01-09T01:22:18.506Z,5.32
2023-01-09T01:27:10.455Z,3.15
2023-01-09T01:32:02.116Z,2.72
2023-01-09T01:36:54.046Z,4.25
2023-01-09T01:41:45.677Z,2.85
2023-01-09T01:46:37.361Z,4.90
2023-01-09T01:51:32.012Z,4.97
2023-01-09T01:56:30.560Z,3.85
2023-01-09T02:01:24.770Z,4.15
2023-01-09T02:06:16.641Z,5.43
2023-01-09T02:11:09.007Z,6.63
2023-01-09T02:16:03.604Z,3.60
2023-01-09T02:21:00.720Z,3.03
2023-01-09T02:26:13.476Z,2.72
2023-01-09T02:31:15.502Z,5.70
2023-01-09T02:36:29.145Z,6.63
2023-01-09T02:41:53.075Z,6.72
2023-01-09T02:46:44.870Z,17.55
2023-01-09T02:51:36.642Z,6.45
2023-01-09T02:56:37.350Z,3.05
2023-01-09T03:01:52.416Z,2.28
2023-01-09T03:06:54.976Z,3.78
2023-01-09T03:12:01.126Z,4.07
2023-01-09T03:17:02.637Z,5.25
2023-01-09T03:21:56.395Z,2.45
2023-01-09T03:26:48.214Z,3.88
2023-01-09T03:31:39.970Z,4.47
2023-01-09T03:36:31.716Z,2.90
2023-01-09T03:41:23.478Z,5.90
2023-01-09T03:46:18.075Z,3.50
2023-01-09T03:51:10.320Z,1.88
2023-01-09T03:56:01.976Z,1.58
2023-01-09T04:00:59.835Z,4.13
2023-01-09T04:05:51.698Z,2.97
2023-01-09T04:10:47.672Z,6.90
2023-01-09T04:15:39.468Z,7.78
2023-01-09T04:20:32.052Z,7.03
2023-01-09T04:25:23.755Z,6.63
2023-01-09T04:30:15.462Z,6.00
2023-01-09T04:35:07.917Z,2.78
2023-01-09T04:39:59.707Z,6.13
2023-01-09T04:44:54.228Z,3.55
2023-01-09T04:49:45.898Z,7.05
2023-01-09T04:54:39.547Z,5.53
2023-01-09T04:59:31.323Z,2.95
2023-01-09T05:04:23.103Z,6.10
2023-01-09T05:09:14.756Z,5.22
2023-01-09T05:14:06.438Z,5.57
2023-01-09T05:18:58.387Z,7.70
2023-01-09T05:23:50.352Z,10.48
2023-01-09T05:28:42.097Z,7.35
2023-01-09T05:33:33.814Z,5.85
2023-01-09T05:38:25.618Z,3.05
2023-01-09T05:43:17.411Z,3.97
2023-01-09T05:48:09.086Z,6.95
2023-01-09T05:53:00.783Z,8.02
2023-01-09T05:57:52.437Z,10.60
2023-01-09T06:02:44.169Z,2.85
2023-01-09T06:07:39.361Z,5.72
2023-01-09T06:12:31.147Z,5.38
2023-01-09T06:17:22.883Z,4.68
2023-01-09T06:22:14.529Z,3.65
2023-01-09T06:27:06.813Z,4.93
2023-01-09T06:31:58.623Z,3.60
2023-01-09T06:36:50.234Z,2.15
2023-01-09T06:41:41.983Z,3.85
2023-01-09T06:46:33.662Z,3.47
2023-01-09T06:51:25.446Z,4.80
2023-01-09T06:56:17.153Z,4.20
2023-01-09T07:01:09.410Z,4.35
2023-01-09T07:06:01.139Z,7.32
2023-01-09T07:10:52.852Z,5.38
2023-01-09T07:15:44.895Z,3.17
2023-01-09T07:20:39.816Z,3.03
2023-01-09T07:25:31.503Z,3.53
2023-01-09T07:30:23.385Z,0.77
2023-01-09T07:35:15.199Z,2.42
2023-01-09T07:40:07.687Z,1.55
2023-01-09T07:44:59.379Z,1.85
2023-01-09T07:49:51.103Z,0.80
2023-01-09T07:54:43.000Z,1.85
2023-01-09T07:59:34.733Z,1.05
2023-01-09T08:04:26.431Z,2.90
2023-01-09T08:09:18.827Z,1.35
2023-01-09T08:14:10.431Z,3.88
2023-01-09T08:19:02.077Z,3.95
2023-01-09T08:23:53.808Z,3.65
2023-01-09T08:28:46.264Z,2.20
2023-01-09T08:33:40.408Z,7.68
2023-01-09T08:38:32.274Z,2.10
2023-01-09T08:43:42.577Z,5.53
2023-01-09T08:48:34.289Z,4.10
2023-01-09T08:53:26.025Z,1.23
2023-01-09T08:58:17.791Z,3.88
2023-01-09T09:03:11.829Z,1.67
2023-01-09T09:08:04.329Z,5.03
2023-01-09T09:12:58.350Z,5.30
2023-01-09T09:18:04.358Z,2.90
2023-01-09T09:22:56.217Z,7.53
2023-01-09T09:27:48.070Z,2.97
2023-01-09T09:32:40.552Z,4.95
2023-01-09T09:37:32.564Z,4.57
2023-01-09T09:42:48.411Z,4.97
2023-01-09T09:47:45.883Z,2.53
2023-01-09T09:52:59.910Z,8.33
2023-01-09T09:57:52.337Z,7.13
2023-01-09T10:03:06.717Z,3.90
2023-01-09T10:08:15.781Z,2.70
2023-01-09T10:13:27.770Z,4.35
2023-01-09T10:18:42.823Z,4.32
2023-01-09T10:23:54.620Z,4.95
2023-01-09T10:29:38.724Z,2.55
2023-01-09T10:34:46.972Z,4.57
2023-01-09T10:39:44.137Z,3.53
2023-01-09T10:45:03.449Z,4.00
2023-01-09T10:49:56.921Z,3.92
2023-01-09T10:54:55.528Z,3.15
2023-01-09T10:59:47.212Z,5.65
2023-01-09T11:04:40.314Z,3.00
2023-01-09T11:09:55.296Z,5.00
2023-01-09T11:14:47.007Z,5.50
2023-01-09T11:19:38.893Z,7.75
2023-01-09T11:24:31.817Z,3.17
2023-01-09T11:29:26.638Z,4.75
2023-01-09T11:34:21.098Z,7.22
2023-01-09T11:39:25.495Z,7.00
2023-01-09T11:44:17.336Z,7.35
2023-01-09T11:49:15.329Z,3.50
2023-01-09T11:54:16.368Z,8.32
2023-01-09T11:59:21.334Z,4.75
2023-01-09T12:04:25.397Z,7.72
2023-01-09T12:09:28.296Z,4.57
2023-01-09T12:14:19.875Z,6.90
2023-01-09T12:19:23.703Z,6.57
2023-01-09T12:24:24.352Z,4.75
2023-01-09T12:29:19.038Z,6.40
2023-01-09T12:34:28.887Z,4.05
2023-01-09T12:39:54.478Z,8.32
2023-01-09T12:45:07.341Z,5.40
2023-01-09T12:50:07.767Z,5.18
2023-01-09T12:55:30.349Z,6.38
2023-01-09T13:00:22.048Z,7.90
2023-01-09T13:05:24.505Z,6.68
2023-01-09T13:10:40.945Z,6.03
2023-01-09T13:15:40.116Z,11.93
2023-01-09T13:21:07.265Z,8.68
2023-01-09T13:26:04.411Z,9.13
2023-01-09T13:31:08.830Z,8.63
2023-01-09T13:36:03.483Z,8.00
2023-01-09T13:41:35.662Z,4.65
2023-01-09T13:46:45.578Z,9.00
2023-01-09T13:51:58.345Z,6.50
2023-01-09T13:57:17.880Z,5.15
2023-01-09T14:02:35.368Z,7.70
2023-01-09T14:07:33.050Z,7.30
2023-01-09T14:12:26.547Z,5.40
2023-01-09T14:17:34.706Z,4.80
2023-01-09T14:22:42.344Z,5.22
2023-01-09T14:27:54.885Z,6.35
2023-01-09T14:32:57.866Z,3.60
2023-01-09T14:38:06.510Z,6.45
2023-01-09T14:43:05.109Z,3.90
2023-01-09T14:48:01.768Z,5.90
2023-01-09T14:52:57.896Z,4.78
2023-01-09T14:57:54.693Z,4.40
2023-01-09T15:02:47.455Z,6.00
2023-01-09T15:08:05.482Z,7.50
2023-01-09T15:13:00.751Z,5.57
2023-01-09T15:18:01.749Z,5.18
2023-01-09T15:22:54.918Z,5.70
2023-01-09T15:28:00.491Z,7.43
2023-01-09T15:32:52.807Z,6.45
2023-01-09T15:37:45.051Z,4.90
2023-01-09T15:42:58.201Z,6.22
2023-01-09T15:47:50.244Z,6.80
2023-01-09T15:52:42.507Z,3.47
2023-01-09T15:57:35.601Z,6.85
2023-01-09T16:02:45.934Z,9.70
2023-01-09T16:07:53.054Z,18.10
2023-01-09T16:12:44.707Z,10.00
2023-01-09T16:17:36.579Z,10.02
2023-01-09T16:22:33.304Z,16.30
2023-01-09T16:27:28.819Z,11.50
2023-01-09T16:32:32.939Z,14.60
2023-01-09T16:37:25.721Z,9.27
2023-01-09T16:42:35.931Z,9.10
2023-01-09T16:47:27.610Z,11.68
2023-01-09T16:52:19.331Z,8.02
2023-01-09T16:57:17.991Z,11.45
2023-01-09T17:02:18.096Z,9.93
2023-01-09T17:07:14.442Z,9.13
2023-01-09T17:12:06.484Z,7.65
2023-01-09T17:16:58.585Z,11.55
2023-01-09T17:21:50.419Z,12.05
2023-01-09T17:27:09.592Z,10.63
2023-01-09T17:32:01.404Z,10.40
2023-01-09T17:36:55.649Z,4.97
2023-01-09T17:41:47.399Z,7.93
2023-01-09T17:46:42.025Z,10.95
2023-01-09T17:51:33.790Z,12.23
2023-01-09T17:56:30.664Z,13.73
2023-01-09T18:01:22.533Z,12.38
2023-01-09T18:06:15.898Z,8.02
2023-01-09T18:11:10.925Z,8.27
2023-01-09T18:16:02.639Z,8.45
2023-01-09T18:20:54.449Z,11.55
2023-01-09T18:25:46.470Z,9.68
2023-01-09T18:30:38.331Z,12.18
2023-01-09T18:35:30.922Z,16.45
2023-01-09T18:40:22.756Z,14.23
2023-01-09T18:45:14.509Z,7.50
2023-01-09T18:50:06.639Z,13.65
2023-01-09T18:54:58.245Z,13.00
2023-01-09T18:59:49.996Z,17.17
2023-01-09T19:04:41.743Z,10.43
2023-01-09T19:09:33.607Z,12.45
2023-01-09T19:14:25.222Z,13.38
2023-01-09T19:19:17.327Z,9.10
2023-01-09T19:24:09.073Z,17.50
2023-01-09T19:29:01.071Z,11.88
2023-01-09T19:33:53.246Z,15.40
2023-01-09T19:38:45.108Z,10.50
2023-01-09T19:43:37.453Z,17.10
2023-01-09T19:48:30.647Z,13.90
2023-01-09T19:53:22.296Z,11.40
2023-01-09T19:58:13.988Z,12.15
2023-01-09T20:03:05.690Z,15.43
2023-01-09T20:07:57.655Z,12.85
2023-01-09T20:12:49.608Z,15.75
2023-01-09T20:17:42.260Z,12.70
2023-01-09T20:22:34.381Z,12.60
2023-01-09T20:27:26.107Z,15.07
2023-01-09T20:32:18.803Z,18.90
2023-01-09T20:37:11.134Z,14.15
2023-01-09T20:42:03.036Z,14.98
2023-01-09T20:46:54.779Z,16.65
2023-01-09T20:51:52.047Z,10.10
2023-01-09T20:56:44.060Z,9.07
2023-01-09T21:01:35.850Z,19.02
2023-01-09T21:06:28.721Z,13.93
2023-01-09T21:11:21.933Z,10.95
2023-01-09T21:16:15.999Z,9.45
2023-01-09T21:21:10.827Z,7.15
2023-01-09T21:26:08.991Z,9.48
2023-01-09T21:35:57.071Z,11.80
2023-01-09T21:40:50.876Z,11.38
2023-01-09T21:46:01.271Z,9.40
2023-01-09T21:50:52.971Z,8.30
2023-01-09T21:55:44.828Z,12.73
2023-01-09T22:00:36.478Z,6.45
2023-01-09T22:05:28.185Z,7.93
2023-01-09T22:10:19.865Z,8.80
2023-01-09T22:15:11.605Z,5.15
2023-01-09T22:20:03.460Z,5.40
2023-01-09T22:24:55.234Z,4.57
2023-01-09T22:29:46.943Z,10.65
2023-01-09T22:34:38.822Z,6.35
2023-01-09T22:39:30.565Z,6.43
2023-01-09T22:44:22.377Z,6.15
2023-01-09T22:49:14.272Z,6.93
2023-01-09T22:54:06.387Z,6.57
2023-01-09T22:58:59.651Z,6.47
2023-01-09T23:03:51.432Z,5.32
2023-01-09T23:08:43.449Z,7.32
2023-01-09T23:13:35.746Z,7.75
2023-01-09T23:18:27.847Z,15.32
2023-01-09T23:23:21.115Z,16.63
2023-01-09T23:28:12.782Z,9.55
2023-01-09T23:33:04.427Z,10.82
2023-01-09T23:37:55.999Z,17.27
2023-01-09T23:43:06.230Z,15.55
2023-01-09T23:47:57.884Z,10.55
2023-01-09T23:52:49.673Z,21.08
2023-01-09T23:57:41.301Z,7.07
